PWSweather.com
Personal Weather Stations
Station Observations
UXOLA
Alcoy, AlcoyES

AlcoyAlcoyES

Lat: 38.70299, Lon: -0.48184

Elevation: 1935

Station Type: PCE FWS-20,

http://www.fiestasalcoy.xyz

High Low Average
Temperature 58.3°F14.6°C 39.2°F4.0°C 50.2°F10.1°C
Dew Point 44.7°F7.1°C 37.9°F3.3°C 41.6°F5.3°C
Winds 15.2 mph 24.5 kmh Calm Calm 4.0 mph SW6.4 kmh SW
Wind Gusts 20.6 mph33.2 kmh 0.7 mph1.1 kmh 8.0 mph12.9 kmh
Humidity 98% 52% 74%
Pressure 29.91 in1012.9 mb 29.64 in1003.7 mb -
Precipitation 0.01 in0.3 mm - -
Hour Temp Dew Point Humidity Winds Wind Gusts Pressure Precip Precip Rate Daily Precip Total
12:00 AM 39.4°F4.1°C 38.1°F3.4°C 95% 0.7 mph ENE1.1 kmh ENE 2.2 mph3.5 kmh 29.91 in1012.9 mb 0.00 in0.0 mm 0.00 in0.0 mm 0.00 in0.0 mm
12:15 AM 39.4°F4.1°C 38.1°F3.4°C 95% Calm Calm 2.2 mph3.5 kmh 29.91 in1012.9 mb 0.00 in0.0 mm 0.00 in0.0 mm 0.00 in0.0 mm
12:30 AM 39.6°F4.2°C 38.3°F3.5°C 95% 1.6 mph ENE2.6 kmh ENE 3.1 mph5.0 kmh 29.91 in1012.9 mb 0.00 in0.0 mm 0.00 in0.0 mm 0.00 in0.0 mm
12:45 AM 39.4°F4.1°C 38.1°F3.4°C 95% 0.7 mph E1.1 kmh E 2.2 mph3.5 kmh 29.91 in1012.9 mb 0.00 in0.0 mm 0.00 in0.0 mm 0.00 in0.0 mm
01:00 AM 39.2°F4.0°C 37.9°F3.3°C 95% 1.6 mph E2.6 kmh E 2.2 mph3.5 kmh 29.91 in1012.9 mb 0.00 in0.0 mm 0.00 in0.0 mm 0.00 in0.0 mm
01:15 AM 39.2°F4.0°C 37.9°F3.3°C 95% 0.7 mph NE1.1 kmh NE 2.2 mph3.5 kmh 29.91 in1012.9 mb 0.00 in0.0 mm 0.00 in0.0 mm 0.00 in0.0 mm
01:30 AM 39.4°F4.1°C 38.1°F3.4°C 95% 0.7 mph E1.1 kmh E 1.6 mph2.6 kmh 29.91 in1012.9 mb 0.00 in0.0 mm 0.00 in0.0 mm 0.00 in0.0 mm
01:45 AM 39.4°F4.1°C 38.1°F3.4°C 95% 0.7 mph E1.1 kmh E 1.6 mph2.6 kmh 29.90 in1012.5 mb 0.00 in0.0 mm 0.00 in0.0 mm 0.00 in0.0 mm
02:00 AM 39.4°F4.1°C 38.1°F3.4°C 95% Calm Calm 0.7 mph1.1 kmh 29.90 in1012.5 mb 0.00 in0.0 mm 0.00 in0.0 mm 0.00 in0.0 mm
02:15 AM 39.4°F4.1°C 38.1°F3.4°C 95% Calm Calm 1.6 mph2.6 kmh 29.89 in1012.2 mb 0.00 in0.0 mm 0.00 in0.0 mm 0.00 in0.0 mm
02:30 AM 39.7°F4.3°C 38.4°F3.6°C 95% 0.7 mph SW1.1 kmh SW 2.2 mph3.5 kmh 29.87 in1011.5 mb 0.00 in0.0 mm 0.00 in0.0 mm 0.00 in0.0 mm
02:45 AM 39.7°F4.3°C 38.4°F3.6°C 95% 2.2 mph ENE3.5 kmh ENE 3.8 mph6.1 kmh 29.86 in1011.2 mb 0.00 in0.0 mm 0.00 in0.0 mm 0.00 in0.0 mm
03:00 AM 39.6°F4.2°C 38.3°F3.5°C 95% Calm Calm 3.1 mph5.0 kmh 29.86 in1011.2 mb 0.00 in0.0 mm 0.00 in0.0 mm 0.00 in0.0 mm
03:15 AM 39.7°F4.3°C 38.4°F3.6°C 95% Calm Calm 1.6 mph2.6 kmh 29.85 in1010.8 mb 0.00 in0.0 mm 0.00 in0.0 mm 0.00 in0.0 mm
03:30 AM 39.9°F4.4°C 38.6°F3.7°C 95% 0.7 mph E1.1 kmh E 3.1 mph5.0 kmh 29.85 in1010.8 mb 0.00 in0.0 mm 0.00 in0.0 mm 0.00 in0.0 mm
03:45 AM 39.9°F4.4°C 38.6°F3.7°C 95% 0.7 mph ENE1.1 kmh ENE 2.2 mph3.5 kmh 29.84 in1010.5 mb 0.00 in0.0 mm 0.00 in0.0 mm 0.00 in0.0 mm
04:00 AM 39.9°F4.4°C 38.9°F3.8°C 96% 0.7 mph E1.1 kmh E 2.2 mph3.5 kmh 29.83 in1010.2 mb 0.00 in0.0 mm 0.00 in0.0 mm 0.00 in0.0 mm
04:15 AM 39.7°F4.3°C 38.4°F3.6°C 95% 1.6 mph NE2.6 kmh NE 3.1 mph5.0 kmh 29.82 in1009.8 mb 0.00 in0.0 mm 0.00 in0.0 mm 0.00 in0.0 mm
04:30 AM 39.7°F4.3°C 38.4°F3.6°C 95% Calm Calm 2.2 mph3.5 kmh 29.81 in1009.5 mb 0.00 in0.0 mm 0.00 in0.0 mm 0.00 in0.0 mm
04:45 AM 39.9°F4.4°C 38.9°F3.8°C 96% 0.7 mph WSW1.1 kmh WSW 3.1 mph5.0 kmh 29.81 in1009.5 mb 0.00 in0.0 mm 0.00 in0.0 mm 0.00 in0.0 mm
05:00 AM 40.8°F4.9°C 40.0°F4.4°C 97% 1.6 mph NW2.6 kmh NW 4.5 mph7.2 kmh 29.80 in1009.1 mb 0.00 in0.0 mm 0.00 in0.0 mm 0.00 in0.0 mm
05:15 AM 42.3°F5.7°C 41.7°F5.4°C 98% Calm Calm 3.1 mph5.0 kmh 29.80 in1009.1 mb 0.01 in0.3 mm 0.04 in1.0 mm 0.01 in0.3 mm
05:30 AM 44.4°F6.9°C 43.1°F6.2°C 95% 6.0 mph WSW9.7 kmh WSW 11.4 mph18.3 kmh 29.80 in1009.1 mb 0.01 in0.3 mm 0.00 in0.0 mm 0.01 in0.3 mm
05:45 AM 45.7°F7.6°C 43.8°F6.6°C 93% 3.8 mph SW6.1 kmh SW 11.4 mph18.3 kmh 29.80 in1009.1 mb 0.01 in0.3 mm 0.00 in0.0 mm 0.01 in0.3 mm
06:00 AM 45.9°F7.7°C 43.1°F6.2°C 90% 4.5 mph WSW7.2 kmh WSW 9.8 mph15.8 kmh 29.80 in1009.1 mb 0.01 in0.3 mm 0.00 in0.0 mm 0.01 in0.3 mm
06:15 AM 46.2°F7.9°C 42.6°F5.9°C 87% 3.1 mph WSW5.0 kmh WSW 9.2 mph14.8 kmh 29.80 in1009.1 mb 0.00 in0.0 mm 0.00 in0.0 mm 0.01 in0.3 mm
06:30 AM 46.2°F7.9°C 42.0°F5.6°C 85% 4.5 mph W7.2 kmh W 9.2 mph14.8 kmh 29.80 in1009.1 mb 0.00 in0.0 mm 0.00 in0.0 mm 0.01 in0.3 mm
06:45 AM 46.2°F7.9°C 42.0°F5.6°C 85% 1.6 mph SW2.6 kmh SW 12.1 mph19.5 kmh 29.79 in1008.8 mb 0.00 in0.0 mm 0.00 in0.0 mm 0.01 in0.3 mm
07:00 AM 46.8°F8.2°C 42.2°F5.7°C 84% 3.8 mph W6.1 kmh W 8.3 mph13.4 kmh 29.79 in1008.8 mb 0.00 in0.0 mm 0.00 in0.0 mm 0.01 in0.3 mm
07:15 AM 46.9°F8.3°C 42.1°F5.6°C 83% 5.4 mph SW8.7 kmh SW 7.6 mph12.2 kmh 29.77 in1008.1 mb 0.00 in0.0 mm 0.00 in0.0 mm 0.01 in0.3 mm
07:30 AM 47.1°F8.4°C 42.2°F5.7°C 83% 2.2 mph W3.5 kmh W 4.5 mph7.2 kmh 29.76 in1007.8 mb 0.00 in0.0 mm 0.00 in0.0 mm 0.01 in0.3 mm
07:45 AM 46.6°F8.1°C 41.7°F5.4°C 83% 1.6 mph WSW2.6 kmh WSW 2.2 mph3.5 kmh 29.76 in1007.8 mb 0.00 in0.0 mm 0.00 in0.0 mm 0.01 in0.3 mm
08:00 AM 46.6°F8.1°C 42.0°F5.6°C 84% 3.8 mph WSW6.1 kmh WSW 6.0 mph9.7 kmh 29.77 in1008.1 mb 0.00 in0.0 mm 0.00 in0.0 mm 0.01 in0.3 mm
08:15 AM 47.8°F8.8°C 42.6°F5.9°C 82% 6.9 mph W11.1 kmh W 8.3 mph13.4 kmh 29.78 in1008.5 mb 0.00 in0.0 mm 0.00 in0.0 mm 0.01 in0.3 mm
08:30 AM 48.2°F9.0°C 42.6°F5.9°C 81% 4.5 mph W7.2 kmh W 10.7 mph17.2 kmh 29.77 in1008.1 mb 0.00 in0.0 mm 0.00 in0.0 mm 0.01 in0.3 mm
08:45 AM 48.6°F9.2°C 42.7°F5.9°C 80% 5.4 mph WSW8.7 kmh WSW 6.9 mph11.1 kmh 29.77 in1008.1 mb 0.00 in0.0 mm 0.00 in0.0 mm 0.01 in0.3 mm
09:00 AM 48.9°F9.4°C 42.7°F5.9°C 79% 3.1 mph W5.0 kmh W 6.0 mph9.7 kmh 29.77 in1008.1 mb 0.00 in0.0 mm 0.00 in0.0 mm 0.01 in0.3 mm
09:15 AM 49.1°F9.5°C 42.5°F5.8°C 78% 3.1 mph WSW5.0 kmh WSW 7.6 mph12.2 kmh 29.76 in1007.8 mb 0.00 in0.0 mm 0.00 in0.0 mm 0.01 in0.3 mm
09:30 AM 49.3°F9.6°C 42.4°F5.8°C 77% 3.1 mph WSW5.0 kmh WSW 9.2 mph14.8 kmh 29.76 in1007.8 mb 0.00 in0.0 mm 0.00 in0.0 mm 0.01 in0.3 mm
09:45 AM 49.5°F9.7°C 42.6°F5.9°C 77% Calm Calm 5.4 mph8.7 kmh 29.75 in1007.5 mb 0.00 in0.0 mm 0.00 in0.0 mm 0.01 in0.3 mm
10:00 AM 49.8°F9.9°C 42.9°F6.1°C 77% 3.1 mph ENE5.0 kmh ENE 4.5 mph7.2 kmh 29.75 in1007.5 mb 0.00 in0.0 mm 0.00 in0.0 mm 0.01 in0.3 mm
10:15 AM 50.0°F10.0°C 43.4°F6.3°C 78% 0.7 mph E1.1 kmh E 3.8 mph6.1 kmh 29.75 in1007.5 mb 0.00 in0.0 mm 0.00 in0.0 mm 0.01 in0.3 mm
10:30 AM 50.5°F10.3°C 43.3°F6.3°C 76% 6.9 mph WSW11.1 kmh WSW 9.8 mph15.8 kmh 29.76 in1007.8 mb 0.00 in0.0 mm 0.00 in0.0 mm 0.01 in0.3 mm
10:45 AM 50.9°F10.5°C 42.6°F5.9°C 73% 3.1 mph WSW5.0 kmh WSW 10.7 mph17.2 kmh 29.76 in1007.8 mb 0.00 in0.0 mm 0.00 in0.0 mm 0.01 in0.3 mm
11:00 AM 51.3°F10.7°C 42.6°F5.9°C 72% 3.1 mph WSW5.0 kmh WSW 12.1 mph19.5 kmh 29.75 in1007.5 mb 0.00 in0.0 mm 0.00 in0.0 mm 0.01 in0.3 mm
11:15 AM 51.3°F10.7°C 42.9°F6.1°C 73% 3.8 mph W6.1 kmh W 5.4 mph8.7 kmh 29.75 in1007.5 mb 0.00 in0.0 mm 0.00 in0.0 mm 0.01 in0.3 mm
11:30 AM 52.3°F11.3°C 43.2°F6.2°C 71% 5.4 mph SW8.7 kmh SW 7.6 mph12.2 kmh 29.75 in1007.5 mb 0.00 in0.0 mm 0.00 in0.0 mm 0.01 in0.3 mm
11:45 AM 53.2°F11.8°C 41.4°F5.2°C 64% 11.4 mph WSW18.3 kmh WSW 13.6 mph21.9 kmh 29.74 in1007.1 mb 0.00 in0.0 mm 0.00 in0.0 mm 0.01 in0.3 mm
12:00 PM 54.0°F12.2°C 41.7°F5.4°C 63% 6.0 mph WSW9.7 kmh WSW 11.4 mph18.3 kmh 29.75 in1007.5 mb 0.00 in0.0 mm 0.00 in0.0 mm 0.01 in0.3 mm
12:15 PM 55.0°F12.8°C 41.8°F5.4°C 61% 9.2 mph WSW14.8 kmh WSW 12.1 mph19.5 kmh 29.74 in1007.1 mb 0.00 in0.0 mm 0.00 in0.0 mm 0.01 in0.3 mm
12:30 PM 55.6°F13.1°C 41.9°F5.5°C 60% 3.8 mph W6.1 kmh W 13.6 mph21.9 kmh 29.73 in1006.8 mb 0.00 in0.0 mm 0.00 in0.0 mm 0.01 in0.3 mm
12:45 PM 56.3°F13.5°C 43.0°F6.1°C 61% 6.9 mph SW11.1 kmh SW 8.3 mph13.4 kmh 29.73 in1006.8 mb 0.00 in0.0 mm 0.00 in0.0 mm 0.01 in0.3 mm
01:00 PM 56.8°F13.8°C 43.1°F6.2°C 60% 5.4 mph SW8.7 kmh SW 12.1 mph19.5 kmh 29.73 in1006.8 mb 0.00 in0.0 mm 0.00 in0.0 mm 0.01 in0.3 mm
01:15 PM 55.9°F13.3°C 41.8°F5.4°C 59% 7.6 mph WSW12.2 kmh WSW 13.6 mph21.9 kmh 29.72 in1006.4 mb 0.00 in0.0 mm 0.00 in0.0 mm 0.01 in0.3 mm
01:30 PM 55.6°F13.1°C 41.5°F5.3°C 59% 9.8 mph W15.8 kmh W 13.6 mph21.9 kmh 29.71 in1006.1 mb 0.00 in0.0 mm 0.00 in0.0 mm 0.01 in0.3 mm
01:45 PM 55.2°F12.9°C 40.7°F4.8°C 58% 6.9 mph SW11.1 kmh SW 11.4 mph18.3 kmh 29.70 in1005.8 mb 0.00 in0.0 mm 0.00 in0.0 mm 0.01 in0.3 mm
02:00 PM 55.8°F13.2°C 38.4°F3.6°C 52% 7.6 mph W12.2 kmh W 19.7 mph31.7 kmh 29.69 in1005.4 mb 0.00 in0.0 mm 0.00 in0.0 mm 0.01 in0.3 mm
02:15 PM 56.7°F13.7°C 39.7°F4.3°C 53% 7.6 mph WSW12.2 kmh WSW 15.2 mph24.5 kmh 29.69 in1005.4 mb 0.00 in0.0 mm 0.00 in0.0 mm 0.01 in0.3 mm
02:30 PM 56.5°F13.6°C 39.6°F4.2°C 53% 9.8 mph WSW15.8 kmh WSW 13.0 mph20.9 kmh 29.69 in1005.4 mb 0.00 in0.0 mm 0.00 in0.0 mm 0.01 in0.3 mm
02:45 PM 56.1°F13.4°C 40.2°F4.6°C 55% 6.9 mph WSW11.1 kmh WSW 16.8 mph27.0 kmh 29.69 in1005.4 mb 0.00 in0.0 mm 0.00 in0.0 mm 0.01 in0.3 mm
03:00 PM 55.8°F13.2°C 40.8°F4.9°C 57% 3.8 mph WSW6.1 kmh WSW 13.0 mph20.9 kmh 29.69 in1005.4 mb 0.00 in0.0 mm 0.00 in0.0 mm 0.01 in0.3 mm
03:15 PM 55.8°F13.2°C 41.7°F5.4°C 59% 4.5 mph WSW7.2 kmh WSW 13.0 mph20.9 kmh 29.69 in1005.4 mb 0.00 in0.0 mm 0.00 in0.0 mm 0.01 in0.3 mm
03:30 PM 55.6°F13.1°C 41.9°F5.5°C 60% 2.2 mph WSW3.5 kmh WSW 3.8 mph6.1 kmh 29.68 in1005.1 mb 0.00 in0.0 mm 0.00 in0.0 mm 0.01 in0.3 mm
03:45 PM 55.4°F13.0°C 42.2°F5.7°C 61% 3.1 mph WSW5.0 kmh WSW 6.9 mph11.1 kmh 29.68 in1005.1 mb 0.00 in0.0 mm 0.00 in0.0 mm 0.01 in0.3 mm
04:00 PM 55.4°F13.0°C 42.6°F5.9°C 62% 2.2 mph WSW3.5 kmh WSW 6.0 mph9.7 kmh 29.67 in1004.7 mb 0.00 in0.0 mm 0.00 in0.0 mm 0.01 in0.3 mm
04:15 PM 55.6°F13.1°C 43.2°F6.2°C 63% 0.7 mph WSW1.1 kmh WSW 5.4 mph8.7 kmh 29.67 in1004.7 mb 0.00 in0.0 mm 0.00 in0.0 mm 0.01 in0.3 mm
04:30 PM 55.8°F13.2°C 43.4°F6.3°C 63% 5.4 mph WSW8.7 kmh WSW 8.3 mph13.4 kmh 29.67 in1004.7 mb 0.00 in0.0 mm 0.00 in0.0 mm 0.01 in0.3 mm
04:45 PM 55.9°F13.3°C 43.5°F6.4°C 63% 3.1 mph W5.0 kmh W 13.6 mph21.9 kmh 29.67 in1004.7 mb 0.00 in0.0 mm 0.00 in0.0 mm 0.01 in0.3 mm
05:00 PM 56.5°F13.6°C 44.5°F6.9°C 64% 5.4 mph SW8.7 kmh SW 9.2 mph14.8 kmh 29.67 in1004.7 mb 0.00 in0.0 mm 0.00 in0.0 mm 0.01 in0.3 mm
05:15 PM 56.3°F13.5°C 44.7°F7.1°C 65% 6.0 mph SW9.7 kmh SW 13.0 mph20.9 kmh 29.68 in1005.1 mb 0.00 in0.0 mm 0.00 in0.0 mm 0.01 in0.3 mm
05:30 PM 56.1°F13.4°C 44.5°F6.9°C 65% 3.1 mph WSW5.0 kmh WSW 8.3 mph13.4 kmh 29.67 in1004.7 mb 0.00 in0.0 mm 0.00 in0.0 mm 0.01 in0.3 mm
05:45 PM 56.5°F13.6°C 44.5°F6.9°C 64% 6.0 mph W9.7 kmh W 11.4 mph18.3 kmh 29.68 in1005.1 mb 0.00 in0.0 mm 0.00 in0.0 mm 0.01 in0.3 mm
06:00 PM 56.7°F13.7°C 44.2°F6.8°C 63% 10.7 mph W17.2 kmh W 14.5 mph23.3 kmh 29.68 in1005.1 mb 0.00 in0.0 mm 0.00 in0.0 mm 0.01 in0.3 mm
06:15 PM 56.7°F13.7°C 44.6°F7.0°C 64% 4.5 mph WSW7.2 kmh WSW 14.5 mph23.3 kmh 29.68 in1005.1 mb 0.00 in0.0 mm 0.00 in0.0 mm 0.01 in0.3 mm
06:30 PM 57.2°F14.0°C 44.3°F6.8°C 62% 8.3 mph SW13.4 kmh SW 13.6 mph21.9 kmh 29.67 in1004.7 mb 0.00 in0.0 mm 0.00 in0.0 mm 0.01 in0.3 mm
06:45 PM 57.2°F14.0°C 43.9°F6.6°C 61% 7.6 mph SW12.2 kmh SW 15.9 mph25.6 kmh 29.66 in1004.4 mb 0.00 in0.0 mm 0.00 in0.0 mm 0.01 in0.3 mm
07:00 PM 57.2°F14.0°C 43.9°F6.6°C 61% 9.2 mph WSW14.8 kmh WSW 15.2 mph24.5 kmh 29.65 in1004.1 mb 0.00 in0.0 mm 0.00 in0.0 mm 0.01 in0.3 mm
07:15 PM 57.2°F14.0°C 43.5°F6.4°C 60% 6.0 mph WSW9.7 kmh WSW 19.0 mph30.6 kmh 29.64 in1003.7 mb 0.00 in0.0 mm 0.00 in0.0 mm 0.01 in0.3 mm
07:30 PM 57.9°F14.4°C 41.4°F5.2°C 54% 10.7 mph WSW17.2 kmh WSW 15.9 mph25.6 kmh 29.65 in1004.1 mb 0.00 in0.0 mm 0.00 in0.0 mm 0.01 in0.3 mm
07:45 PM 58.3°F14.6°C 41.2°F5.1°C 53% 15.2 mph WSW24.5 kmh WSW 20.6 mph33.2 kmh 29.65 in1004.1 mb 0.00 in0.0 mm 0.00 in0.0 mm 0.01 in0.3 mm
08:00 PM 58.3°F14.6°C 41.2°F5.1°C 53% 10.7 mph WSW17.2 kmh WSW 15.9 mph25.6 kmh 29.65 in1004.1 mb 0.00 in0.0 mm 0.00 in0.0 mm 0.01 in0.3 mm
08:15 PM 58.3°F14.6°C 41.7°F5.4°C 54% 7.6 mph WSW12.2 kmh WSW 19.7 mph31.7 kmh 29.65 in1004.1 mb 0.00 in0.0 mm 0.00 in0.0 mm 0.01 in0.3 mm
08:30 PM 57.6°F14.2°C 42.0°F5.6°C 56% 7.6 mph WSW12.2 kmh WSW 15.9 mph25.6 kmh 29.67 in1004.7 mb 0.00 in0.0 mm 0.00 in0.0 mm 0.01 in0.3 mm
08:45 PM 56.8°F13.8°C 42.7°F5.9°C 59% 5.4 mph WSW8.7 kmh WSW 11.4 mph18.3 kmh 29.66 in1004.4 mb 0.00 in0.0 mm 0.00 in0.0 mm 0.01 in0.3 mm
09:00 PM 56.7°F13.7°C 42.9°F6.1°C 60% 0.7 mph W1.1 kmh W 4.5 mph7.2 kmh 29.68 in1005.1 mb 0.00 in0.0 mm 0.00 in0.0 mm 0.01 in0.3 mm
09:15 PM 56.1°F13.4°C 42.4°F5.8°C 60% 2.2 mph ENE3.5 kmh ENE 3.8 mph6.1 kmh 29.67 in1004.7 mb 0.00 in0.0 mm 0.00 in0.0 mm 0.01 in0.3 mm
09:30 PM 55.2°F12.9°C 43.3°F6.3°C 64% 2.2 mph WSW3.5 kmh WSW 3.8 mph6.1 kmh 29.68 in1005.1 mb 0.00 in0.0 mm 0.00 in0.0 mm 0.01 in0.3 mm
09:45 PM 54.3°F12.4°C 43.2°F6.2°C 66% 1.6 mph NW2.6 kmh NW 2.2 mph3.5 kmh 29.69 in1005.4 mb 0.00 in0.0 mm 0.00 in0.0 mm 0.01 in0.3 mm
10:00 PM 53.6°F12.0°C 42.9°F6.1°C 67% Calm Calm 1.6 mph2.6 kmh 29.68 in1005.1 mb 0.00 in0.0 mm 0.00 in0.0 mm 0.01 in0.3 mm
10:15 PM 53.1°F11.7°C 43.2°F6.2°C 69% 0.7 mph E1.1 kmh E 2.2 mph3.5 kmh 29.68 in1005.1 mb 0.00 in0.0 mm 0.00 in0.0 mm 0.01 in0.3 mm
10:30 PM 54.5°F12.5°C 44.2°F6.8°C 68% 5.4 mph SW8.7 kmh SW 10.7 mph17.2 kmh 29.68 in1005.1 mb 0.00 in0.0 mm 0.00 in0.0 mm 0.01 in0.3 mm
10:45 PM 56.1°F13.4°C 43.7°F6.5°C 63% 2.2 mph W3.5 kmh W 9.8 mph15.8 kmh 29.66 in1004.4 mb 0.00 in0.0 mm 0.00 in0.0 mm 0.01 in0.3 mm
11:00 PM 56.5°F13.6°C 43.6°F6.4°C 62% 3.8 mph WSW6.1 kmh WSW 7.6 mph12.2 kmh 29.67 in1004.7 mb 0.00 in0.0 mm 0.00 in0.0 mm 0.01 in0.3 mm
11:30 PM 56.8°F13.8°C 43.1°F6.2°C 60% 4.5 mph WSW7.2 kmh WSW 8.3 mph13.4 kmh 29.68 in1005.1 mb 0.00 in0.0 mm 0.00 in0.0 mm 0.01 in0.3 mm
11:45 PM 56.8°F13.8°C 42.7°F5.9°C 59% 5.4 mph W8.7 kmh W 10.7 mph17.2 kmh 29.67 in1004.7 mb 0.00 in0.0 mm 0.00 in0.0 mm 0.01 in0.3 mm